Time;durP1;ratioP1;P1;durP2;ratioP2;P2;SDS_P1;SDS_P2;PMS_P1;PMS_P2;Temp;Humidity;BMP_temperature;BMP_pressure;BME280_temperature;BME280_humidity;BME280_pressure;Samples;Min_cycle;Max_cycle;Signal;HPM_P1;HPM_P2
2024/02/29 00:01:25;;;;;;;8.43;6.30;;;10.80;66.30;12.60;101340.00;;;;5018121;28;20568;-70
2024/02/29 00:03:53;;;;;;;10.80;6.40;;;10.80;66.30;12.60;101338.00;;;;4999049;28;20324;-70
2024/02/29 00:06:20;;;;;;;8.98;6.45;;;10.80;67.00;12.60;101335.00;;;;4994679;28;20289;-70
2024/02/29 00:08:47;;;;;;;9.57;7.18;;;10.90;66.30;12.60;101331.00;;;;4993991;28;20193;-71
2024/02/29 00:11:14;;;;;;;9.43;6.28;;;10.90;66.20;12.60;101329.00;;;;4993935;28;20198;-70
2024/02/29 00:13:43;;;;;;;8.32;6.53;;;10.90;66.20;12.60;101321.00;;;;5005289;28;20201;-70
2024/02/29 00:16:11;;;;;;;8.07;6.18;;;11.00;66.20;12.70;101322.00;;;;4995019;28;20649;-70
2024/02/29 00:18:38;;;;;;;9.13;7.10;;;10.90;66.10;12.70;101318.00;;;;4999926;28;20230;-70
2024/02/29 00:21:05;;;;;;;9.23;6.40;;;11.00;66.10;12.70;101307.00;;;;4998081;28;20201;-70
2024/02/29 00:23:32;;;;;;;6.93;6.15;;;11.00;66.10;12.80;101302.00;;;;5001585;28;20198;-71
2024/02/29 00:25:59;;;;;;;8.52;6.47;;;11.00;66.10;12.80;101314.00;;;;4994895;28;20205;-70
2024/02/29 00:28:25;;;;;;;9.10;6.78;;;11.00;66.00;12.80;101315.00;;;;4993961;28;20281;-70
2024/02/29 00:30:54;;;;;;;10.07;6.97;;;11.00;65.90;12.80;101309.00;;;;4998789;28;20205;-71
2024/02/29 00:33:21;;;;;;;9.63;6.28;;;11.10;65.90;12.80;101309.00;;;;4994214;28;20204;-71
2024/02/29 00:35:48;;;;;;;13.13;7.63;;;11.10;65.90;12.90;101305.00;;;;5001019;28;20323;-71
2024/02/29 00:38:15;;;;;;;12.25;7.22;;;11.10;65.90;12.90;101306.00;;;;4993939;28;20760;-70
2024/02/29 00:40:42;;;;;;;7.80;6.40;;;11.10;65.80;12.90;101296.00;;;;4993787;28;20285;-70
2024/02/29 00:43:09;;;;;;;8.32;7.03;;;11.10;65.80;12.90;101299.00;;;;4998718;28;20304;-71
2024/02/29 00:45:36;;;;;;;12.70;7.38;;;11.20;65.90;12.90;101302.00;;;;4992493;28;20212;-70
2024/02/29 00:48:05;;;;;;;8.52;6.35;;;11.20;65.70;12.90;101296.00;;;;5000554;28;20284;-70
2024/02/29 00:50:34;;;;;;;8.80;7.20;;;11.20;65.70;12.90;101301.00;;;;5003572;28;20259;-71
2024/02/29 00:53:01;;;;;;;8.55;6.72;;;11.20;65.70;12.90;101288.00;;;;4992937;28;20193;-70
2024/02/29 00:55:28;;;;;;;13.10;8.40;;;11.20;65.60;12.90;101283.00;;;;5001499;28;20320;-71
2024/02/29 00:57:55;;;;;;;11.68;8.18;;;11.20;65.60;12.90;101278.00;;;;4992954;28;20244;-71
2024/02/29 01:00:22;;;;;;;9.38;7.15;;;11.20;65.50;12.90;101277.00;;;;4999511;28;20280;-70
2024/02/29 01:02:49;;;;;;;9.52;6.50;;;11.30;65.60;12.90;101274.00;;;;4993870;28;20778;-70
2024/02/29 01:05:18;;;;;;;10.80;6.95;;;11.20;65.50;12.90;101274.00;;;;4996144;28;20277;-70
2024/02/29 01:07:45;;;;;;;9.18;6.40;;;11.20;65.50;12.90;101267.00;;;;5011477;28;20200;-70
2024/02/29 01:10:12;;;;;;;10.57;6.40;;;11.30;65.50;13.00;101262.00;;;;4999306;28;20287;-71
2024/02/29 01:12:41;;;;;;;10.27;7.05;;;11.30;65.50;13.00;101262.00;;;;5012785;28;20228;-71
2024/02/29 01:15:10;;;;;;;11.07;6.72;;;11.30;65.50;13.00;101255.00;;;;5008094;28;20721;-71
2024/02/29 01:17:38;;;;;;;12.48;7.28;;;11.30;65.50;13.00;101254.00;;;;5002596;28;20284;-71
2024/02/29 01:20:06;;;;;;;9.05;6.93;;;11.30;66.20;13.00;101249.00;;;;5006917;28;20220;-70
2024/02/29 01:22:35;;;;;;;10.63;6.53;;;11.30;65.40;13.00;101246.00;;;;4999607;28;20380;-70
2024/02/29 01:25:02;;;;;;;9.75;7.00;;;11.30;65.40;13.00;101231.00;;;;5000082;28;20293;-70
2024/02/29 01:27:29;;;;;;;11.65;6.63;;;11.30;65.40;13.10;101227.00;;;;5011984;28;20705;-71
2024/02/29 01:29:57;;;;;;;15.73;7.63;;;11.30;65.40;13.10;101221.00;;;;5012355;28;20286;-70
2024/02/29 01:32:24;;;;;;;9.82;7.05;;;11.40;65.40;13.10;101215.00;;;;5005998;28;20273;-70
2024/02/29 01:34:51;;;;;;;9.98;7.05;;;11.40;65.40;13.10;101209.00;;;;5006108;28;20283;-71
2024/02/29 01:37:18;;;;;;;9.27;6.53;;;11.40;66.00;13.10;101207.00;;;;5011958;28;20280;-70
2024/02/29 01:39:47;;;;;;;9.60;6.90;;;11.40;65.30;13.10;101202.00;;;;5008716;28;20197;-70
2024/02/29 01:42:14;;;;;;;12.18;7.60;;;11.40;65.30;13.10;101197.00;;;;5011817;28;20785;-70
2024/02/29 01:44:53;;;;;;;10.52;6.45;;;11.40;65.30;13.00;101199.00;;;;5003656;28;20277;-71
2024/02/29 01:47:21;;;;;;;9.52;6.90;;;11.40;65.30;13.10;101197.00;;;;5003844;28;20199;-71
2024/02/29 01:49:49;;;;;;;8.48;6.10;;;11.50;65.30;13.10;101198.00;;;;4992282;28;20264;-71
2024/02/29 01:52:19;;;;;;;10.38;6.93;;;11.50;65.20;13.10;101189.00;;;;4992218;28;20201;-70
2024/02/29 01:54:47;;;;;;;8.93;6.35;;;11.50;65.20;13.10;101180.00;;;;4992982;28;20281;-71
2024/02/29 01:57:16;;;;;;;9.10;6.97;;;11.50;65.20;13.20;101178.00;;;;5002048;28;20333;-71
2024/02/29 01:59:45;;;;;;;8.13;6.53;;;11.50;65.10;13.20;101182.00;;;;5003550;28;20201;-70
2024/02/29 02:02:12;;;;;;;11.43;6.53;;;11.50;65.10;13.20;101175.00;;;;4995669;28;20288;-71
2024/02/29 02:04:39;;;;;;;10.35;7.18;;;11.50;65.10;13.20;101175.00;;;;4991936;28;20280;-70
2024/02/29 02:07:09;;;;;;;10.18;6.63;;;11.50;65.10;13.20;101170.00;;;;4993261;28;20244;-71
2024/02/29 02:09:41;;;;;;;9.90;6.22;;;11.60;65.20;13.20;101168.00;;;;5002616;28;20190;-71
2024/02/29 02:12:11;;;;;;;9.48;6.57;;;11.60;65.20;13.20;101169.00;;;;4991996;28;20198;-71
2024/02/29 02:14:39;;;;;;;9.98;6.55;;;11.60;65.10;13.30;101163.00;;;;4993030;28;20217;-71
2024/02/29 02:17:06;;;;;;;10.13;6.28;;;11.60;65.10;13.30;101154.00;;;;5003841;28;20231;-70
2024/02/29 02:19:33;;;;;;;9.45;6.07;;;11.60;65.10;13.30;101155.00;;;;4994165;28;20218;-70
2024/02/29 02:22:04;;;;;;;10.10;5.97;;;11.60;65.00;13.30;101150.00;;;;4992070;28;20687;-71
2024/02/29 02:24:32;;;;;;;8.13;6.07;;;11.60;65.80;13.30;101142.00;;;;4995790;28;20196;-71
2024/02/29 02:26:59;;;;;;;10.23;6.05;;;11.70;65.10;13.30;101143.00;;;;5003263;28;20284;-71
2024/02/29 02:29:26;;;;;;;10.60;6.55;;;11.70;65.10;13.40;101143.00;;;;5009701;28;20288;-70
2024/02/29 02:31:53;;;;;;;10.10;6.40;;;11.70;65.00;13.40;101139.00;;;;4998977;28;20209;-70
2024/02/29 02:34:21;;;;;;;9.10;5.88;;;11.70;65.00;13.40;101140.00;;;;4993481;28;20193;-70
2024/02/29 02:36:48;;;;;;;8.18;5.95;;;11.70;65.00;13.40;101139.00;;;;4995418;28;20228;-70
2024/02/29 02:39:17;;;;;;;8.95;5.90;;;11.70;65.00;13.40;101132.00;;;;4993824;28;20754;-70
2024/02/29 02:41:44;;;;;;;9.13;5.90;;;11.70;65.00;13.40;101130.00;;;;4992136;28;20281;-70
2024/02/29 02:44:12;;;;;;;14.60;7.32;;;11.70;64.90;13.40;101125.00;;;;4993268;28;20208;-72
2024/02/29 02:46:39;;;;;;;8.68;6.25;;;11.80;65.00;13.40;101120.00;;;;4998410;28;20206;-71
2024/02/29 02:49:06;;;;;;;8.73;5.93;;;11.80;65.00;13.40;101114.00;;;;5002489;28;20872;-70
2024/02/29 02:51:34;;;;;;;8.15;5.95;;;11.80;65.00;13.40;101118.00;;;;4991628;28;20809;-71
2024/02/29 02:54:01;;;;;;;10.25;6.82;;;11.80;65.00;13.40;101108.00;;;;4992444;28;20197;-71
2024/02/29 02:56:29;;;;;;;10.63;6.60;;;11.80;65.00;13.40;101108.00;;;;4996945;28;20308;-71
2024/02/29 02:58:56;;;;;;;8.32;6.18;;;11.80;65.00;13.40;101100.00;;;;4994184;28;20752;-71
2024/02/29 03:01:23;;;;;;;7.57;5.90;;;11.80;65.00;13.50;101099.00;;;;4997171;28;20301;-71
2024/02/29 03:03:52;;;;;;;7.10;5.18;;;11.80;65.00;13.40;101100.00;;;;5007241;28;20264;-71
2024/02/29 03:06:19;;;;;;;7.95;6.05;;;11.80;65.00;13.50;101090.00;;;;4993803;28;20206;-71
2024/02/29 03:08:46;;;;;;;8.40;5.70;;;11.80;65.00;13.50;101094.00;;;;4991944;28;20281;-71
2024/02/29 03:11:14;;;;;;;7.57;5.50;;;11.80;65.00;13.50;101083.00;;;;5001144;28;20740;-71
2024/02/29 03:13:42;;;;;;;9.45;6.45;;;11.80;65.00;13.50;101080.00;;;;4995816;28;20252;-71
2024/02/29 03:16:10;;;;;;;8.32;5.93;;;11.90;65.00;13.50;101070.00;;;;4995134;28;20313;-71
2024/02/29 03:18:37;;;;;;;10.15;6.15;;;11.90;65.10;13.50;101070.00;;;;4995167;28;20217;-72
2024/02/29 03:21:06;;;;;;;8.75;5.43;;;11.90;65.10;13.50;101075.00;;;;4995216;28;20205;-71
2024/02/29 03:23:33;;;;;;;11.25;6.80;;;11.90;65.10;13.50;101074.00;;;;5004540;28;20216;-71
2024/02/29 03:26:00;;;;;;;8.27;5.53;;;11.90;65.20;13.60;101067.00;;;;5004732;28;20205;-71
2024/02/29 03:28:27;;;;;;;10.43;6.65;;;11.90;65.20;13.60;101060.00;;;;5007501;28;20726;-71
2024/02/29 03:30:56;;;;;;;14.98;6.55;;;11.90;65.20;13.50;101061.00;;;;5013273;28;20674;-71
2024/02/29 03:33:23;;;;;;;9.88;6.47;;;11.90;65.20;13.50;101054.00;;;;5006430;28;20329;-71
2024/02/29 03:35:51;;;;;;;6.75;5.28;;;11.90;65.20;13.50;101058.00;;;;5000968;28;20323;-71
2024/02/29 03:38:19;;;;;;;10.60;6.50;;;11.90;65.20;13.50;101055.00;;;;5004451;28;20197;-71
2024/02/29 03:40:46;;;;;;;9.27;6.18;;;11.90;65.20;13.50;101055.00;;;;4995293;28;20289;-71
2024/02/29 03:43:13;;;;;;;10.57;6.75;;;11.90;65.20;13.50;101044.00;;;;4994829;28;20750;-71
2024/02/29 03:45:40;;;;;;;9.02;6.35;;;11.90;65.20;13.50;101047.00;;;;4994777;28;20547;-71
2024/02/29 03:48:09;;;;;;;9.20;5.93;;;11.80;65.30;13.50;101041.00;;;;4994838;28;20284;-71
2024/02/29 03:50:36;;;;;;;10.13;6.43;;;11.80;65.40;13.50;101043.00;;;;4993941;28;20198;-71
2024/02/29 03:53:03;;;;;;;9.60;6.88;;;11.80;65.50;13.50;101045.00;;;;4994494;28;20547;-71
2024/02/29 03:55:31;;;;;;;10.77;6.60;;;11.90;65.50;13.50;101040.00;;;;5006061;28;20624;-71
2024/02/29 03:57:58;;;;;;;9.43;6.20;;;11.80;65.50;13.40;101044.00;;;;4994844;28;20758;-71
2024/02/29 04:00:25;;;;;;;10.50;6.43;;;11.80;65.50;13.40;101032.00;;;;5003880;28;20287;-71
2024/02/29 04:02:52;;;;;;;9.45;5.93;;;11.80;65.50;13.40;101030.00;;;;5013547;28;20308;-71
2024/02/29 04:05:24;;;;;;;8.75;5.90;;;11.80;65.60;13.40;101020.00;;;;4996261;28;20719;-71
2024/02/29 04:07:53;;;;;;;10.40;6.35;;;11.80;65.60;13.40;101023.00;;;;4994178;28;20201;-71
2024/02/29 04:10:20;;;;;;;8.63;6.15;;;11.80;65.60;13.40;101019.00;;;;4994418;28;20197;-71
2024/02/29 04:12:47;;;;;;;11.55;6.20;;;11.80;65.70;13.40;101020.00;;;;4997270;28;20292;-71
2024/02/29 04:15:16;;;;;;;9.15;6.88;;;11.80;65.80;13.40;101012.00;;;;4997983;28;20201;-72
2024/02/29 04:17:43;;;;;;;8.48;6.32;;;11.70;65.80;13.40;101023.00;;;;5009821;28;20291;-71
2024/02/29 04:20:10;;;;;;;9.82;5.82;;;11.70;65.90;13.40;101018.00;;;;4995513;28;20304;-71
2024/02/29 04:22:40;;;;;;;10.02;6.15;;;11.70;65.90;13.30;101012.00;;;;5007057;28;20737;-71
2024/02/29 04:25:10;;;;;;;11.90;7.75;;;11.70;66.00;13.30;101010.00;;;;4994469;28;20197;-71
2024/02/29 04:27:37;;;;;;;8.95;5.60;;;11.70;66.00;13.30;101010.00;;;;5012068;28;20186;-72
2024/02/29 04:30:06;;;;;;;9.65;6.68;;;11.70;66.10;13.30;101009.00;;;;5007576;28;20209;-72
2024/02/29 04:32:33;;;;;;;9.10;6.60;;;11.70;66.20;13.30;100999.00;;;;5009379;28;20693;-72
2024/02/29 04:35:02;;;;;;;9.60;6.80;;;11.60;66.20;13.30;100998.00;;;;5012440;28;20283;-72
2024/02/29 04:37:29;;;;;;;10.05;7.13;;;11.60;66.20;13.30;100998.00;;;;5012634;28;20278;-72
2024/02/29 04:39:57;;;;;;;9.15;6.78;;;11.60;66.30;13.30;100993.00;;;;5003809;28;20627;-71
2024/02/29 04:42:24;;;;;;;10.00;6.25;;;11.60;66.30;13.30;101004.00;;;;5000508;28;20193;-72
2024/02/29 04:44:51;;;;;;;10.13;6.68;;;11.60;66.40;13.30;100998.00;;;;4994364;28;20291;-71
2024/02/29 04:47:18;;;;;;;9.40;6.15;;;11.60;66.40;13.30;100991.00;;;;4993428;28;20285;-72
2024/02/29 04:49:45;;;;;;;9.00;6.13;;;11.60;66.50;13.30;100985.00;;;;4997247;28;20276;-71
2024/02/29 04:52:13;;;;;;;11.50;6.53;;;11.60;66.50;13.30;100978.00;;;;4992874;28;20293;-71
2024/02/29 04:54:40;;;;;;;9.57;6.25;;;11.60;66.50;13.30;100986.00;;;;4993305;28;20675;-71
2024/02/29 04:57:09;;;;;;;11.10;6.88;;;11.60;66.50;13.20;100975.00;;;;5008624;28;20313;-71
2024/02/29 04:59:36;;;;;;;13.15;6.70;;;11.60;66.60;13.20;100967.00;;;;4992694;28;20225;-71
2024/02/29 05:02:03;;;;;;;9.57;6.72;;;11.60;66.60;13.20;100974.00;;;;4996921;28;20301;-72
2024/02/29 05:04:30;;;;;;;8.52;6.10;;;11.50;66.70;13.20;100971.00;;;;4993239;28;20389;-71
2024/02/29 05:06:57;;;;;;;12.07;7.78;;;11.60;66.80;13.20;100973.00;;;;5011031;28;20201;-71
2024/02/29 05:09:25;;;;;;;11.45;7.28;;;11.50;66.70;13.20;100963.00;;;;5012373;28;20659;-72
2024/02/29 05:11:53;;;;;;;10.52;6.57;;;11.50;66.80;13.20;100960.00;;;;5009323;28;20278;-71
2024/02/29 05:14:22;;;;;;;10.38;6.93;;;11.50;66.80;13.20;100960.00;;;;4992107;28;20643;-71
2024/02/29 05:16:49;;;;;;;8.88;6.55;;;11.60;67.00;13.20;100957.00;;;;5010308;28;20224;-71
2024/02/29 05:19:16;;;;;;;11.45;7.10;;;11.50;67.00;13.20;100962.00;;;;5006114;28;20311;-71
2024/02/29 05:21:44;;;;;;;10.65;6.68;;;11.50;67.00;13.20;100949.00;;;;5000760;28;20248;-71
2024/02/29 05:24:12;;;;;;;10.13;6.80;;;11.50;67.00;13.20;100954.00;;;;5008875;28;20623;-71
2024/02/29 05:26:39;;;;;;;10.23;7.45;;;11.50;67.00;13.30;100947.00;;;;4997758;28;20240;-71
2024/02/29 05:29:06;;;;;;;11.82;7.40;;;11.50;67.10;13.30;100941.00;;;;4991402;28;20202;-71
2024/02/29 05:31:35;;;;;;;11.52;6.82;;;11.50;67.10;13.20;100942.00;;;;4995275;28;20204;-71
2024/02/29 05:34:02;;;;;;;10.55;6.28;;;11.60;67.20;13.30;100941.00;;;;4998002;28;20264;-71
2024/02/29 05:36:29;;;;;;;9.68;6.60;;;11.60;67.20;13.30;100941.00;;;;4993634;28;20229;-72
2024/02/29 05:38:56;;;;;;;8.43;6.35;;;11.60;67.30;13.30;100936.00;;;;4999254;28;20284;-72
2024/02/29 05:41:23;;;;;;;12.95;6.80;;;11.60;67.20;13.30;100938.00;;;;4991706;28;20349;-71
2024/02/29 05:43:51;;;;;;;8.07;6.22;;;11.60;67.30;13.30;100926.00;;;;4990846;28;20297;-71
2024/02/29 05:46:18;;;;;;;10.48;6.40;;;11.60;67.40;13.30;100930.00;;;;4997260;28;20189;-71
2024/02/29 05:48:47;;;;;;;11.38;7.05;;;11.60;67.40;13.30;100927.00;;;;5000272;28;20201;-71
2024/02/29 05:51:14;;;;;;;10.30;7.00;;;11.60;67.40;13.30;100925.00;;;;4991559;28;20308;-71
2024/02/29 05:53:42;;;;;;;10.30;6.60;;;11.60;67.40;13.30;100920.00;;;;4991359;28;20193;-72
2024/02/29 05:56:09;;;;;;;9.85;6.38;;;11.60;67.40;13.30;100930.00;;;;4993891;28;20686;-71
2024/02/29 05:58:36;;;;;;;10.82;6.30;;;11.60;67.50;13.30;100935.00;;;;4991231;28;20217;-71
2024/02/29 06:01:04;;;;;;;11.60;6.50;;;11.60;67.50;13.30;100928.00;;;;4998123;28;20759;-70
2024/02/29 06:03:31;;;;;;;12.93;7.70;;;11.60;67.60;13.30;100923.00;;;;4991054;28;20267;-71
2024/02/29 06:06:01;;;;;;;9.23;6.50;;;11.60;67.50;13.30;100919.00;;;;4999124;28;20313;-71
2024/02/29 06:08:29;;;;;;;9.20;5.88;;;11.60;67.60;13.30;100919.00;;;;4997664;28;20202;-70
2024/02/29 06:10:56;;;;;;;10.15;5.75;;;11.60;67.50;13.40;100918.00;;;;4990804;28;20620;-71
2024/02/29 06:13:23;;;;;;;8.68;6.47;;;11.70;67.60;13.40;100914.00;;;;4990644;28;20743;-70
2024/02/29 06:15:50;;;;;;;10.35;6.82;;;11.60;67.60;13.40;100907.00;;;;5002284;28;20189;-71
2024/02/29 06:18:17;;;;;;;10.80;6.25;;;11.70;67.70;13.40;100902.00;;;;4965745;28;1107275;-71
2024/02/29 06:20:44;;;;;;;7.57;5.43;;;11.70;67.70;13.40;100900.00;;;;4992028;28;20272;-71
2024/02/29 06:23:13;;;;;;;7.35;5.57;;;11.70;67.80;13.40;100912.00;;;;4995641;28;20277;-71
2024/02/29 06:25:42;;;;;;;9.75;5.78;;;11.70;67.80;13.40;100917.00;;;;5003899;28;20292;-71
2024/02/29 06:28:09;;;;;;;7.85;5.75;;;11.70;67.80;13.40;100914.00;;;;5004211;28;20189;-70
2024/02/29 06:30:36;;;;;;;9.00;6.07;;;11.70;67.80;13.40;100923.00;;;;4995784;28;20606;-71
2024/02/29 06:33:04;;;;;;;9.02;6.22;;;11.70;67.80;13.40;100915.00;;;;5004955;28;20201;-70
2024/02/29 06:35:32;;;;;;;9.57;6.57;;;11.70;67.80;13.50;100913.00;;;;5002189;28;20189;-71
2024/02/29 06:37:59;;;;;;;11.43;6.75;;;11.80;67.90;13.50;100911.00;;;;5002351;28;20252;-70
2024/02/29 06:40:27;;;;;;;8.25;5.65;;;11.80;67.90;13.50;100912.00;;;;4990673;28;20205;-71
2024/02/29 06:42:54;;;;;;;8.48;5.80;;;11.80;67.90;13.50;100911.00;;;;5013437;28;20205;-71
2024/02/29 06:45:21;;;;;;;7.95;5.80;;;11.80;67.90;13.50;100910.00;;;;5018432;28;20283;-70
2024/02/29 06:47:47;;;;;;;6.78;5.38;;;11.80;67.90;13.50;100913.00;;;;5011777;28;20217;-71
2024/02/29 06:50:15;;;;;;;8.80;5.78;;;11.80;68.10;13.50;100906.00;;;;5020994;28;20196;-71
2024/02/29 06:52:42;;;;;;;7.20;4.85;;;11.80;68.10;13.50;100909.00;;;;5014325;28;20284;-71
2024/02/29 06:55:10;;;;;;;7.78;6.05;;;11.80;68.00;13.60;100900.00;;;;5006436;28;20233;-71
2024/02/29 06:57:38;;;;;;;8.75;5.20;;;11.80;68.00;13.60;100894.00;;;;5010893;28;20228;-71
2024/02/29 07:00:10;;;;;;;9.27;6.10;;;11.80;68.00;13.60;100903.00;;;;5000368;28;20295;-71
2024/02/29 07:02:38;;;;;;;6.78;5.03;;;11.90;68.10;13.60;100902.00;;;;5017916;28;20209;-70
2024/02/29 07:05:08;;;;;;;9.05;5.03;;;11.90;68.10;13.60;100902.00;;;;5019289;28;20216;-71
2024/02/29 07:07:35;;;;;;;8.35;5.72;;;11.90;68.10;13.60;100897.00;;;;5024004;28;20615;-71
2024/02/29 07:10:06;;;;;;;8.00;5.93;;;11.90;68.10;13.60;100892.00;;;;5017231;28;20852;-72
2024/02/29 07:12:33;;;;;;;9.00;5.90;;;11.90;68.20;13.70;100895.00;;;;5018723;28;20204;-72
2024/02/29 07:15:02;;;;;;;9.88;5.95;;;11.90;68.10;13.70;100892.00;;;;5027731;28;20283;-71
2024/02/29 07:17:29;;;;;;;9.85;5.90;;;11.90;68.10;13.70;100890.00;;;;5027343;28;20212;-72
2024/02/29 07:19:56;;;;;;;7.82;5.57;;;12.00;68.10;13.70;100894.00;;;;5025285;28;20220;-72
2024/02/29 07:22:23;;;;;;;7.25;5.07;;;12.00;68.10;13.70;100887.00;;;;5027185;28;21565;-71
2024/02/29 07:24:51;;;;;;;7.80;5.13;;;12.00;68.10;13.70;100881.00;;;;5024215;28;20392;-71
2024/02/29 07:27:18;;;;;;;8.65;5.63;;;12.00;68.10;13.70;100879.00;;;;5022944;28;20246;-72
2024/02/29 07:29:45;;;;;;;7.75;5.80;;;12.00;68.10;13.80;100879.00;;;;5017484;28;20632;-72
2024/02/29 07:32:15;;;;;;;8.23;5.15;;;12.10;68.10;13.80;100878.00;;;;5019504;28;21187;-71
2024/02/29 07:34:42;;;;;;;7.70;5.13;;;12.10;68.10;13.80;100880.00;;;;5013994;28;20201;-71
2024/02/29 07:37:09;;;;;;;8.70;5.47;;;12.10;68.10;13.80;100873.00;;;;5010161;28;20321;-71
2024/02/29 07:39:36;;;;;;;7.38;5.45;;;12.10;68.10;13.80;100873.00;;;;5023731;28;20662;-70
2024/02/29 07:42:03;;;;;;;7.00;5.05;;;12.10;68.10;13.80;100877.00;;;;5026597;28;20241;-71
2024/02/29 07:44:32;;;;;;;7.07;5.35;;;12.10;68.10;13.80;100875.00;;;;5017170;28;20196;-71
2024/02/29 07:46:59;;;;;;;6.93;4.43;;;12.10;68.00;13.90;100867.00;;;;5014967;28;20283;-71
2024/02/29 07:49:27;;;;;;;6.85;4.85;;;12.20;68.10;13.90;100872.00;;;;5024641;28;20279;-71
2024/02/29 07:51:55;;;;;;;8.00;5.05;;;12.20;68.10;13.90;100864.00;;;;5009572;28;20280;-71
2024/02/29 07:54:22;;;;;;;8.32;5.03;;;12.20;68.10;13.90;100868.00;;;;5012002;28;20222;-72
2024/02/29 07:56:49;;;;;;;6.85;5.03;;;12.20;68.10;13.90;100868.00;;;;5014069;28;20280;-71
2024/02/29 07:59:16;;;;;;;7.55;5.00;;;12.20;68.10;13.90;100867.00;;;;5016962;28;20271;-71
2024/02/29 08:01:43;;;;;;;7.70;5.32;;;12.20;68.00;13.90;100867.00;;;;5015217;28;20284;-71
2024/02/29 08:04:11;;;;;;;8.20;5.43;;;12.30;68.10;14.00;100859.00;;;;5019848;28;20310;-71
2024/02/29 08:06:40;;;;;;;6.88;4.85;;;12.30;68.00;14.00;100862.00;;;;5019337;28;20205;-71
2024/02/29 08:09:08;;;;;;;6.68;4.72;;;12.30;68.00;14.00;100851.00;;;;5019747;28;20708;-71
2024/02/29 08:11:35;;;;;;;6.22;4.53;;;12.30;68.00;14.00;100855.00;;;;5018836;28;20200;-71
2024/02/29 08:14:03;;;;;;;7.43;5.00;;;12.30;68.00;14.00;100856.00;;;;5019565;28;20205;-70
2024/02/29 08:16:31;;;;;;;9.10;5.32;;;12.40;68.20;14.10;100856.00;;;;5020283;28;20617;-71
2024/02/29 08:18:58;;;;;;;7.80;5.40;;;12.40;68.20;14.10;100847.00;;;;5004604;28;20319;-71
2024/02/29 08:21:26;;;;;;;7.05;5.70;;;12.40;68.20;14.10;100847.00;;;;5002842;28;20268;-71
2024/02/29 08:23:54;;;;;;;7.75;5.22;;;12.40;68.40;14.10;100852.00;;;;5017601;28;20204;-70
2024/02/29 08:26:22;;;;;;;7.53;5.10;;;12.40;68.20;14.10;100839.00;;;;5002347;28;20281;-71
2024/02/29 08:28:49;;;;;;;7.45;5.10;;;12.40;68.20;14.20;100836.00;;;;5002787;28;20193;-71
2024/02/29 08:31:17;;;;;;;9.15;5.50;;;12.40;68.20;14.20;100843.00;;;;4996947;28;20288;-71
2024/02/29 08:33:44;;;;;;;6.57;4.55;;;12.50;68.20;14.20;100838.00;;;;4997282;28;20292;-71
2024/02/29 08:36:11;;;;;;;8.25;5.28;;;12.50;68.20;14.20;100836.00;;;;5010262;28;20200;-71
2024/02/29 08:38:38;;;;;;;6.97;5.20;;;12.50;68.20;14.20;100844.00;;;;5010510;28;20773;-71
2024/02/29 08:41:07;;;;;;;7.55;5.20;;;12.60;68.20;14.20;100836.00;;;;5014548;28;20193;-71
2024/02/29 08:43:34;;;;;;;8.57;4.60;;;12.60;68.20;14.30;100847.00;;;;5011172;28;20288;-71
2024/02/29 08:46:01;;;;;;;7.05;5.22;;;12.60;68.20;14.30;100839.00;;;;4998734;28;20229;-71
2024/02/29 08:48:28;;;;;;;7.82;5.10;;;12.60;68.20;14.30;100837.00;;;;5003433;28;20284;-72
2024/02/29 08:50:55;;;;;;;6.80;4.80;;;12.60;68.20;14.30;100839.00;;;;5011485;28;20247;-71
2024/02/29 08:53:23;;;;;;;8.93;4.97;;;12.60;68.20;14.30;100834.00;;;;5014084;28;20272;-72
2024/02/29 08:55:50;;;;;;;6.57;4.95;;;12.60;68.20;14.30;100837.00;;;;5015005;28;20201;-71
2024/02/29 08:58:19;;;;;;;6.57;4.97;;;12.60;68.20;14.30;100836.00;;;;5021106;28;20262;-71
2024/02/29 09:00:46;;;;;;;8.02;4.57;;;12.60;68.20;14.30;100829.00;;;;5017946;28;20212;-72
2024/02/29 09:03:14;;;;;;;6.10;4.80;;;12.60;68.10;14.30;100825.00;;;;5012780;28;20316;-71
2024/02/29 09:05:41;;;;;;;9.50;5.80;;;12.70;68.20;14.30;100826.00;;;;5015597;28;20666;-71
2024/02/29 09:08:09;;;;;;;7.80;4.97;;;12.70;68.30;14.40;100823.00;;;;5014515;28;20276;-72
2024/02/29 09:10:36;;;;;;;8.55;5.50;;;12.70;68.20;14.40;100827.00;;;;5006038;28;20749;-72
2024/02/29 09:13:04;;;;;;;6.85;4.32;;;12.70;68.20;14.40;100829.00;;;;5008559;28;20281;-72
2024/02/29 09:15:33;;;;;;;7.35;5.07;;;12.70;68.30;14.40;100824.00;;;;5005825;28;20201;-72
2024/02/29 09:18:01;;;;;;;6.97;4.47;;;12.70;68.30;14.40;100826.00;;;;5004885;28;20311;-72
2024/02/29 09:20:28;;;;;;;10.38;5.18;;;12.70;68.30;14.40;100825.00;;;;4995544;28;20664;-71
2024/02/29 09:22:56;;;;;;;7.50;5.18;;;12.70;68.30;14.50;100817.00;;;;4998288;28;20211;-71
2024/02/29 09:25:23;;;;;;;8.52;5.32;;;12.80;68.40;14.40;100824.00;;;;4999643;28;20323;-72
2024/02/29 09:29:05;;;;;;;6.88;4.68;;;12.70;68.30;14.30;100813.00;;;;5000722;28;20294;-71
2024/02/29 09:31:33;;;;;;;5.60;4.30;;;12.70;68.50;14.40;100807.00;;;;4999997;28;20295;-71
2024/02/29 09:34:00;;;;;;;7.93;5.47;;;12.80;68.30;14.40;100802.00;;;;4996677;28;20208;-71
2024/02/29 09:36:29;;;;;;;6.35;4.85;;;12.70;68.40;14.40;100797.00;;;;5003565;28;20285;-71
2024/02/29 09:38:57;;;;;;;8.65;5.13;;;12.80;68.30;14.40;100799.00;;;;5002028;28;20737;-71
2024/02/29 09:41:24;;;;;;;6.35;4.85;;;12.70;68.30;14.50;100801.00;;;;4999017;28;20193;-71
2024/02/29 09:43:53;;;;;;;7.05;5.05;;;12.70;68.40;14.50;100795.00;;;;4992280;28;20292;-71
2024/02/29 09:46:21;;;;;;;9.20;5.63;;;12.80;68.50;14.50;100797.00;;;;5000860;28;20205;-71
2024/02/29 09:48:51;;;;;;;9.25;5.30;;;12.80;68.60;14.50;100796.00;;;;5002470;28;20194;-71
2024/02/29 09:51:22;;;;;;;9.23;5.13;;;12.80;68.70;14.60;100791.00;;;;4997111;28;20207;-71
2024/02/29 09:53:53;;;;;;;11.35;5.15;;;12.80;68.70;14.60;100787.00;;;;5016670;28;20299;-71
2024/02/29 09:56:24;;;;;;;7.22;5.07;;;12.90;68.80;14.60;100794.00;;;;5019003;28;20193;-71
2024/02/29 09:58:53;;;;;;;7.72;5.18;;;12.90;68.80;14.70;100795.00;;;;5013547;28;20660;-72
2024/02/29 10:01:21;;;;;;;7.20;5.00;;;12.90;68.80;14.70;100787.00;;;;5009478;28;20197;-71
2024/02/29 10:03:51;;;;;;;6.75;5.05;;;12.90;69.50;14.70;100783.00;;;;5015059;28;20220;-71
2024/02/29 10:06:18;;;;;;;6.97;5.10;;;12.90;68.80;14.70;100786.00;;;;5013165;28;20235;-71
2024/02/29 10:08:45;;;;;;;7.07;5.10;;;13.00;68.90;14.70;100784.00;;;;5015975;28;20204;-71
2024/02/29 10:11:13;;;;;;;7.35;5.43;;;13.00;68.90;14.70;100783.00;;;;5015661;28;20211;-71
2024/02/29 10:13:41;;;;;;;8.52;4.95;;;13.00;68.80;14.80;100779.00;;;;5013979;28;20193;-71
2024/02/29 10:16:09;;;;;;;7.60;5.28;;;13.00;68.80;14.80;100777.00;;;;5013831;28;20204;-71
2024/02/29 10:18:38;;;;;;;9.52;5.45;;;13.10;68.90;14.80;100771.00;;;;5023724;28;20226;-71
2024/02/29 10:21:11;;;;;;;7.45;5.00;;;13.10;69.00;14.80;100784.00;;;;5015984;28;20208;-71
2024/02/29 10:23:38;;;;;;;7.95;5.07;;;13.10;68.90;14.90;100770.00;;;;5010742;28;20197;-71
2024/02/29 10:26:06;;;;;;;7.88;5.30;;;13.10;68.90;14.90;100770.00;;;;5011676;28;20199;-71
2024/02/29 10:28:33;;;;;;;7.93;5.43;;;13.20;69.00;14.90;100776.00;;;;5011720;28;20279;-70
2024/02/29 10:31:01;;;;;;;7.13;4.70;;;13.20;68.90;14.90;100770.00;;;;5023905;28;20647;-71
2024/02/29 10:33:29;;;;;;;8.02;4.82;;;13.20;68.90;14.90;100764.00;;;;5023152;28;20189;-71
2024/02/29 10:35:57;;;;;;;9.32;5.18;;;13.20;68.90;15.00;100760.00;;;;5014595;28;20194;-71
2024/02/29 10:38:25;;;;;;;6.97;5.25;;;13.20;69.00;15.00;100755.00;;;;5010922;28;20229;-71
2024/02/29 10:41:00;;;;;;;7.40;5.55;;;13.20;68.90;14.90;100752.00;;;;5003741;28;20296;-71
2024/02/29 10:43:31;;;;;;;7.50;4.90;;;13.30;68.90;15.00;100753.00;;;;5015839;28;20198;-71
2024/02/29 10:46:05;;;;;;;6.72;4.38;;;13.30;68.90;15.00;100754.00;;;;5023698;28;20824;-71
2024/02/29 10:48:48;;;;;;;6.30;4.40;;;13.30;69.00;15.00;100752.00;;;;5013748;28;20292;-71